Terminal Aerodrome Forecast
Issued by NWS

Home | Current Version | Previous Version | Text Only | Print | Product List | Glossary Off
Versions: 1 2 3 4 5 6 7 8 9 10 11 12 13 14 15 16 17 18 19

185
FTUS43 KMPX 101720
TAFRWF
TAF
KRWF 101720Z 1018/1118 12006KT 4SM -SN BR SCT025 OVC035
     FM101830 09006KT P6SM OVC040
     FM110300 33004KT P6SM BKN050
     FM111200 22004KT P6SM BKN050 OVC120=

USA.gov is the U.S. government's official web portal to all federal, state and local government web resources and services.